Time;durP1;ratioP1;P1;durP2;ratioP2;P2;SDS_P1;SDS_P2;PMS_P1;PMS_P2;Temp;Humidity;BMP_temperature;BMP_pressure;BME280_temperature;BME280_humidity;BME280_pressure;Samples;Min_cycle;Max_cycle;Signal;HPM_P1;HPM_P2
2022/11/08 00:02:15;;;;;;;12.3;2.2;;;;;;;;;;;;;-78
2022/11/08 00:03:35;;;;;;;;;;;;;;;11.65;99.04688;100866.2;;;;-78
2022/11/08 00:18:35;;;;;;;;;;;;;;;11.56;98.82617;100857.5;;;;-78
2022/11/08 00:23:35;;;;;;;;;;;;;;;11.54;98.77832;100851;;;;-77
2022/11/08 00:28:35;;;;;;;;;;;;;;;11.46;98.90527;100856.3;;;;-78
2022/11/08 00:32:22;;;;;;;11.7;2.1;;;;;;;;;;;;;-78
2022/11/08 00:33:35;;;;;;;;;;;;;;;11.42;98.8291;100855.6;;;;-77
2022/11/08 00:38:35;;;;;;;;;;;;;;;11.34;98.97754;100849.9;;;;-79
2022/11/08 00:43:35;;;;;;;;;;;;;;;11.29;98.8877;100851.3;;;;-78
2022/11/08 00:48:35;;;;;;;;;;;;;;;11.25;99.05469;100854;;;;-76
2022/11/08 00:53:35;;;;;;;;;;;;;;;11.21;99.0459;100852.4;;;;-78
2022/11/08 00:58:35;;;;;;;;;;;;;;;11.16;99.08887;100852.8;;;;-78
2022/11/08 01:02:17;;;;;;;6.7;1.9;;;;;;;;;;;;;-78
2022/11/08 01:03:35;;;;;;;;;;;;;;;11.11;99.17773;100842.9;;;;-79
2022/11/08 01:08:35;;;;;;;;;;;;;;;11.06;99.22266;100834.3;;;;-77
2022/11/08 01:13:35;;;;;;;;;;;;;;;11.01;99.17676;100830.4;;;;-78
2022/11/08 01:18:35;;;;;;;;;;;;;;;10.99;99.36035;100833.3;;;;-78
2022/11/08 01:23:38;;;;;;;;;;;;;;;10.94;99.33887;100830.2;;;;-80
2022/11/08 01:28:35;;;;;;;;;;;;;;;10.91;99.47363;100824.3;;;;-79
2022/11/08 01:32:20;;;;;;;7.7;2.1;;;;;;;;;;;;;-78
2022/11/08 01:33:35;;;;;;;;;;;;;;;10.87;99.45508;100812.9;;;;-79
2022/11/08 01:38:35;;;;;;;;;;;;;;;10.83;99.55469;100794.8;;;;-79
2022/11/08 01:43:42;;;;;;;;;;;;;;;10.8;99.61621;100793.6;;;;-77
2022/11/08 01:48:35;;;;;;;;;;;;;;;10.77;99.64063;100778.1;;;;-78
2022/11/08 01:53:35;;;;;;;;;;;;;;;10.73;99.66602;100777.4;;;;-78
2022/11/08 01:58:37;;;;;;;;;;;;;;;10.68;99.70801;100770.3;;;;-78
2022/11/08 02:02:20;;;;;;;5.9;1.8;;;;;;;;;;;;;-78
2022/11/08 02:03:38;;;;;;;;;;;;;;;10.65;99.73535;100770.8;;;;-78
2022/11/08 02:08:39;;;;;;;;;;;;;;;10.62;99.79297;100768.6;;;;-78
2022/11/08 02:13:36;;;;;;;;;;;;;;;10.6;99.81348;100768;;;;-78
2022/11/08 02:18:35;;;;;;;;;;;;;;;10.59;99.78711;100759.5;;;;-78
2022/11/08 02:23:35;;;;;;;;;;;;;;;10.58;99.85059;100757.4;;;;-80
2022/11/08 02:28:40;;;;;;;;;;;;;;;10.54;99.8291;100763.1;;;;-78
2022/11/08 02:32:20;;;;;;;6.2;1.7;;;;;;;;;;;;;-79
2022/11/08 02:33:35;;;;;;;;;;;;;;;10.51;99.7793;100750.7;;;;-79
2022/11/08 02:38:37;;;;;;;;;;;;;;;10.49;99.81934;100747.4;;;;-78
2022/11/08 02:43:35;;;;;;;;;;;;;;;10.47;99.85938;100747.4;;;;-78
2022/11/08 02:48:35;;;;;;;;;;;;;;;10.45;99.87695;100732.7;;;;-78
2022/11/08 02:53:38;;;;;;;;;;;;;;;10.44;99.87305;100734;;;;-78
2022/11/08 02:58:35;;;;;;;;;;;;;;;10.43;99.80664;100732.4;;;;-78
2022/11/08 03:02:21;;;;;;;8.1;2;;;;;;;;;;;;;-78
2022/11/08 03:03:37;;;;;;;;;;;;;;;10.43;99.88379;100722.7;;;;-78
2022/11/08 03:08:35;;;;;;;;;;;;;;;10.42;99.76953;100707.3;;;;-78
2022/11/08 03:13:35;;;;;;;;;;;;;;;10.39;99.85156;100699.1;;;;-77
2022/11/08 03:18:35;;;;;;;;;;;;;;;10.38;99.77246;100691.3;;;;-78
2022/11/08 03:23:35;;;;;;;;;;;;;;;10.35;99.80957;100689;;;;-77
2022/11/08 03:28:37;;;;;;;;;;;;;;;10.35;99.79883;100676.8;;;;-77
2022/11/08 03:32:22;;;;;;;6.5;2;;;;;;;;;;;;;-80
2022/11/08 03:33:35;;;;;;;;;;;;;;;10.32;99.77051;100674.1;;;;-77
2022/11/08 03:38:37;;;;;;;;;;;;;;;10.32;99.68066;100670.3;;;;-78
2022/11/08 03:43:35;;;;;;;;;;;;;;;10.3;99.64355;100653.5;;;;-77
2022/11/08 03:48:35;;;;;;;;;;;;;;;10.29;99.54297;100645.7;;;;-77
2022/11/08 03:53:38;;;;;;;;;;;;;;;10.28;99.46387;100644;;;;-78
2022/11/08 03:58:35;;;;;;;;;;;;;;;10.26;99.50293;100637.8;;;;-77
2022/11/08 04:02:22;;;;;;;5.8;1.8;;;;;;;;;;;;;-78
2022/11/08 04:03:35;;;;;;;;;;;;;;;10.26;99.32813;100634.7;;;;-78
2022/11/08 04:08:35;;;;;;;;;;;;;;;10.26;99.53613;100621.9;;;;-77
2022/11/08 04:23:36;;;;;;;;;;;;;;;10.18;99.46289;100607.7;;;;-79
2022/11/08 04:28:36;;;;;;;;;;;;;;;10.17;99.45898;100604.1;;;;-78
2022/11/08 04:32:24;;;;;;;5.2;1.9;;;;;;;;;;;;;-77
2022/11/08 04:33:35;;;;;;;;;;;;;;;10.14;99.47461;100602.2;;;;-77
2022/11/08 04:38:40;;;;;;;;;;;;;;;10.1;99.32324;100597.8;;;;-79
2022/11/08 04:43:35;;;;;;;;;;;;;;;10.1;99.34766;100588.4;;;;-77
2022/11/08 04:48:35;;;;;;;;;;;;;;;10.02;98.94434;100582.9;;;;-79
2022/11/08 04:53:35;;;;;;;;;;;;;;;10.03;99.18848;100572.6;;;;-78
2022/11/08 04:58:36;;;;;;;;;;;;;;;9.95;99.26855;100565.2;;;;-77
2022/11/08 05:02:23;;;;;;;6;1.9;;;;;;;;;;;;;-78
2022/11/08 05:03:35;;;;;;;;;;;;;;;10;99.32227;100544.1;;;;-78
2022/11/08 05:08:35;;;;;;;;;;;;;;;9.98;99.0332;100547.2;;;;-77
2022/11/08 05:13:35;;;;;;;;;;;;;;;9.98;99.02148;100538.1;;;;-79
2022/11/08 05:18:35;;;;;;;;;;;;;;;9.97;98.94336;100534;;;;-78
2022/11/08 05:23:35;;;;;;;;;;;;;;;9.98;98.79102;100526;;;;-78
2022/11/08 05:28:35;;;;;;;;;;;;;;;9.98;98.72559;100523.5;;;;-77
2022/11/08 05:32:24;;;;;;;5.8;1.9;;;;;;;;;;;;;-79
2022/11/08 05:33:35;;;;;;;;;;;;;;;10.01;98.44531;100514;;;;-77
2022/11/08 05:38:35;;;;;;;;;;;;;;;10;98.28027;100507;;;;-77
2022/11/08 05:43:35;;;;;;;;;;;;;;;10.03;98.09961;100498.7;;;;-78
2022/11/08 05:48:35;;;;;;;;;;;;;;;10.03;98.01172;100491.9;;;;-79
2022/11/08 05:53:36;;;;;;;;;;;;;;;10.03;97.86914;100497.7;;;;-78
2022/11/08 05:58:36;;;;;;;;;;;;;;;10.02;97.95508;100492.2;;;;-78
2022/11/08 06:02:24;;;;;;;4.2;1.7;;;;;;;;;;;;;-78
2022/11/08 06:03:35;;;;;;;;;;;;;;;10.03;97.84766;100476.1;;;;-77
2022/11/08 06:08:35;;;;;;;;;;;;;;;10.04;97.55273;100473.2;;;;-78
2022/11/08 06:13:36;;;;;;;;;;;;;;;10.04;97.50879;100467;;;;-78
2022/11/08 06:18:35;;;;;;;;;;;;;;;10.04;97.17871;100459.8;;;;-78
2022/11/08 06:23:37;;;;;;;;;;;;;;;10.04;97.12402;100462.7;;;;-78
2022/11/08 06:28:36;;;;;;;;;;;;;;;10.03;96.95703;100453.7;;;;-79
2022/11/08 06:32:25;;;;;;;4.4;1.5;;;;;;;;;;;;;-78
2022/11/08 06:33:35;;;;;;;;;;;;;;;10.03;96.79199;100457.6;;;;-77
2022/11/08 06:38:35;;;;;;;;;;;;;;;10.03;96.5498;100453.7;;;;-78
2022/11/08 06:43:35;;;;;;;;;;;;;;;10.05;96.34473;100451.6;;;;-78
2022/11/08 06:48:35;;;;;;;;;;;;;;;10.06;95.90723;100449.7;;;;-78
2022/11/08 06:53:35;;;;;;;;;;;;;;;10.04;95.8916;100444.3;;;;-77
2022/11/08 06:58:35;;;;;;;;;;;;;;;10.03;95.59277;100440.5;;;;-78
2022/11/08 07:02:25;;;;;;;2.9;1.3;;;;;;;;;;;;;-78
2022/11/08 07:03:35;;;;;;;;;;;;;;;10.04;95.4502;100451;;;;-73
2022/11/08 07:08:35;;;;;;;;;;;;;;;10.03;95.27344;100468.6;;;;-74
2022/11/08 07:13:35;;;;;;;;;;;;;;;10.08;94.56836;100458.8;;;;-72
2022/11/08 07:18:38;;;;;;;;;;;;;;;10.05;94.87109;100459.2;;;;-77
2022/11/08 07:23:36;;;;;;;;;;;;;;;10.08;94.49121;100450;;;;-79
2022/11/08 07:28:35;;;;;;;;;;;;;;;10.13;93.97461;100428.2;;;;-78
2022/11/08 07:32:26;;;;;;;3.4;1.4;;;;;;;;;;;;;-77
2022/11/08 07:33:35;;;;;;;;;;;;;;;10.15;94.00098;100433.6;;;;-78
2022/11/08 07:38:35;;;;;;;;;;;;;;;10.18;93.67676;100442.6;;;;-78
2022/11/08 07:43:35;;;;;;;;;;;;;;;10.2;93.50586;100446.8;;;;-77
2022/11/08 07:48:35;;;;;;;;;;;;;;;10.26;93.59473;100459.1;;;;-78
2022/11/08 07:53:35;;;;;;;;;;;;;;;10.29;92.94043;100461.8;;;;-78
2022/11/08 07:58:36;;;;;;;;;;;;;;;10.33;93.24707;100454.2;;;;-78
2022/11/08 08:02:26;;;;;;;3;1.4;;;;;;;;;;;;;-78
2022/11/08 08:03:36;;;;;;;;;;;;;;;10.37;93.07617;100449.4;;;;-78
2022/11/08 08:08:35;;;;;;;;;;;;;;;10.41;92.60156;100439.6;;;;-77
2022/11/08 08:13:35;;;;;;;;;;;;;;;10.45;92.21387;100451;;;;-77
2022/11/08 08:18:35;;;;;;;;;;;;;;;10.48;91.98828;100442.6;;;;-78
2022/11/08 08:23:35;;;;;;;;;;;;;;;10.51;92.10449;100428.6;;;;-78
2022/11/08 08:28:35;;;;;;;;;;;;;;;10.55;91.75;100414.8;;;;-77
2022/11/08 08:32:27;;;;;;;4.5;1.5;;;;;;;;;;;;;-78
2022/11/08 08:33:36;;;;;;;;;;;;;;;10.6;91.42871;100424.7;;;;-79
2022/11/08 08:38:35;;;;;;;;;;;;;;;10.63;91.31348;100428;;;;-77
2022/11/08 08:43:37;;;;;;;;;;;;;;;10.65;91.46191;100449.1;;;;-77
2022/11/08 08:48:37;;;;;;;;;;;;;;;10.67;91.29004;100439.9;;;;-76
2022/11/08 08:53:35;;;;;;;;;;;;;;;10.7;91.21777;100432.3;;;;-78
2022/11/08 08:58:35;;;;;;;;;;;;;;;10.75;90.56738;100411.4;;;;-79
2022/11/08 09:02:28;;;;;;;3.1;1.6;;;;;;;;;;;;;-77
2022/11/08 09:03:36;;;;;;;;;;;;;;;10.8;90.5791;100408.1;;;;-77
2022/11/08 09:08:35;;;;;;;;;;;;;;;10.85;90.57715;100404;;;;-77
2022/11/08 09:13:36;;;;;;;;;;;;;;;10.88;90.06348;100397.1;;;;-77
2022/11/08 09:18:35;;;;;;;;;;;;;;;10.97;90.41211;100408.7;;;;-78
2022/11/08 09:23:35;;;;;;;;;;;;;;;11.06;89.95605;100408.8;;;;-77
2022/11/08 09:28:39;;;;;;;;;;;;;;;11.15;89.64453;100406.6;;;;-76
2022/11/08 09:32:30;;;;;;;4.4;1.7;;;;;;;;;;;;;-77
2022/11/08 09:33:35;;;;;;;;;;;;;;;11.2;89.45703;100410.9;;;;-77
2022/11/08 09:38:35;;;;;;;;;;;;;;;11.24;89.08887;100419;;;;-78
2022/11/08 09:43:42;;;;;;;;;;;;;;;11.27;88.63965;100414.1;;;;-77
2022/11/08 09:48:38;;;;;;;;;;;;;;;11.3;88.39258;100416.8;;;;-78
2022/11/08 09:53:41;;;;;;;;;;;;;;;11.36;88.66895;100419.9;;;;-78
2022/11/08 09:58:37;;;;;;;;;;;;;;;11.42;87.57715;100427.7;;;;-77
2022/11/08 10:02:30;;;;;;;4.2;1.7;;;;;;;;;;;;;-76
2022/11/08 10:03:35;;;;;;;;;;;;;;;11.49;87.52344;100412.7;;;;-77
2022/11/08 10:08:38;;;;;;;;;;;;;;;11.51;87.0957;100380.2;;;;-77
2022/11/08 10:13:41;;;;;;;;;;;;;;;11.57;86.95313;100414.4;;;;-78
2022/11/08 10:18:47;;;;;;;;;;;;;;;11.66;87.41211;100407.5;;;;-77
2022/11/08 10:23:40;;;;;;;;;;;;;;;11.74;86.3877;100408;;;;-77
2022/11/08 10:28:37;;;;;;;;;;;;;;;11.79;85.86914;100405.2;;;;-77
2022/11/08 10:32:32;;;;;;;3.2;1.6;;;;;;;;;;;;;-73
2022/11/08 10:33:37;;;;;;;;;;;;;;;11.82;86.34863;100411.7;;;;-73
2022/11/08 10:38:37;;;;;;;;;;;;;;;11.85;86.5;100413.3;;;;-73
2022/11/08 10:43:40;;;;;;;;;;;;;;;11.91;85.83496;100417;;;;-73
2022/11/08 10:48:37;;;;;;;;;;;;;;;12.04;85.2959;100413.5;;;;-72
2022/11/08 10:53:35;;;;;;;;;;;;;;;12.08;85.12402;100423.7;;;;-73
2022/11/08 10:58:39;;;;;;;;;;;;;;;12.2;85.1377;100419.4;;;;-78
2022/11/08 11:02:36;;;;;;;3.3;1.6;;;;;;;;;;;;;-78
2022/11/08 11:03:35;;;;;;;;;;;;;;;12.28;85.13184;100425.8;;;;-77
2022/11/08 11:08:36;;;;;;;;;;;;;;;12.38;84.58496;100426;;;;-78
2022/11/08 11:13:35;;;;;;;;;;;;;;;12.47;84.67969;100416.3;;;;-77
2022/11/08 11:18:37;;;;;;;;;;;;;;;12.54;83.86133;100408.8;;;;-77
2022/11/08 11:23:45;;;;;;;;;;;;;;;12.64;83.90137;100405.9;;;;-75
2022/11/08 11:28:35;;;;;;;;;;;;;;;12.74;83.48828;100405.2;;;;-77
2022/11/08 11:32:38;;;;;;;4.6;1.7;;;;;;;;;;;;;-77
2022/11/08 11:33:35;;;;;;;;;;;;;;;12.89;83.22754;100402.6;;;;-77
2022/11/08 11:38:39;;;;;;;;;;;;;;;12.93;83.21387;100401.6;;;;-76
2022/11/08 11:43:41;;;;;;;;;;;;;;;13.06;82.61328;100397;;;;-76
2022/11/08 11:48:39;;;;;;;;;;;;;;;13.15;82.6416;100399.3;;;;-77
2022/11/08 11:53:41;;;;;;;;;;;;;;;13.21;82.04199;100401.3;;;;-77
2022/11/08 11:58:58;;;;;;;;;;;;;;;13.25;82.25;100402.7;;;;-76
2022/11/08 12:02:57;;;;;;;6;1.8;;;;;;;;;;;;;-75
2022/11/08 12:03:49;;;;;;;;;;;;;;;13.34;81.84473;100403.3;;;;-77
2022/11/08 12:08:44;;;;;;;;;;;;;;;13.37;81.82715;100388.2;;;;-77
2022/11/08 12:13:40;;;;;;;;;;;;;;;13.42;82.31445;100397.7;;;;-78
2022/11/08 12:18:44;;;;;;;;;;;;;;;13.49;82.02539;100398.2;;;;-77
2022/11/08 12:23:46;;;;;;;;;;;;;;;13.57;81.25195;100402.5;;;;-78
2022/11/08 12:28:44;;;;;;;;;;;;;;;13.66;80.72266;100393;;;;-76
2022/11/08 12:32:53;;;;;;;3.8;1.7;;;;;;;;;;;;;-78
2022/11/08 12:33:42;;;;;;;;;;;;;;;13.68;79.62305;100388.4;;;;-77
2022/11/08 12:38:38;;;;;;;;;;;;;;;13.74;80.04492;100389.4;;;;-78
2022/11/08 12:43:45;;;;;;;;;;;;;;;13.79;79.98828;100381.2;;;;-78
2022/11/08 12:48:42;;;;;;;;;;;;;;;13.8;80.10059;100390.3;;;;-77
2022/11/08 12:53:51;;;;;;;;;;;;;;;13.77;79.99609;100383.7;;;;-77
2022/11/08 12:58:36;;;;;;;;;;;;;;;13.8;79.4082;100379.1;;;;-76
2022/11/08 13:02:39;;;;;;;5.3;1.7;;;;;;;;;;;;;-76
2022/11/08 13:03:44;;;;;;;;;;;;;;;13.78;79.92871;100365.4;;;;-77
2022/11/08 13:08:39;;;;;;;;;;;;;;;13.71;80.37402;100363.2;;;;-77
2022/11/08 13:13:40;;;;;;;;;;;;;;;13.68;80.10059;100363.4;;;;-77
2022/11/08 13:18:46;;;;;;;;;;;;;;;13.67;80.67969;100364.3;;;;-77
2022/11/08 13:23:35;;;;;;;;;;;;;;;13.67;80.73535;100375;;;;-78
2022/11/08 13:28:50;;;;;;;;;;;;;;;13.66;80.62109;100372.3;;;;-77
2022/11/08 13:32:44;;;;;;;5.2;1.6;;;;;;;;;;;;;-78
2022/11/08 13:33:35;;;;;;;;;;;;;;;13.64;80.55176;100369.2;;;;-78
2022/11/08 13:38:45;;;;;;;;;;;;;;;13.66;80.36426;100366.8;;;;-78
2022/11/08 13:43:35;;;;;;;;;;;;;;;13.6;80.64453;100368.6;;;;-77
2022/11/08 13:48:46;;;;;;;;;;;;;;;13.63;80.70508;100361;;;;-78
2022/11/08 13:53:56;;;;;;;;;;;;;;;13.63;80.62695;100368.7;;;;-77
2022/11/08 13:58:39;;;;;;;;;;;;;;;13.63;80.66016;100371.8;;;;-78
2022/11/08 14:02:42;;;;;;;5.5;1.7;;;;;;;;;;;;;-77
2022/11/08 14:03:49;;;;;;;;;;;;;;;13.58;81.05273;100372.3;;;;-78
2022/11/08 14:08:39;;;;;;;;;;;;;;;13.57;81.11816;100368.1;;;;-77
2022/11/08 14:13:40;;;;;;;;;;;;;;;13.58;81.36328;100362.2;;;;-78
2022/11/08 14:18:37;;;;;;;;;;;;;;;13.56;80.87012;100364.3;;;;-78
2022/11/08 14:23:37;;;;;;;;;;;;;;;13.58;81.25391;100365.4;;;;-76
2022/11/08 14:28:36;;;;;;;;;;;;;;;13.61;81.54785;100369.8;;;;-77
2022/11/08 14:32:40;;;;;;;7.8;1.9;;;;;;;;;;;;;-77
2022/11/08 14:33:36;;;;;;;;;;;;;;;13.63;81.30664;100361.3;;;;-78
2022/11/08 14:38:36;;;;;;;;;;;;;;;13.61;81.12695;100362.2;;;;-77
2022/11/08 14:43:38;;;;;;;;;;;;;;;13.55;81.46973;100360.8;;;;-79
2022/11/08 14:48:35;;;;;;;;;;;;;;;13.52;81.55371;100367.6;;;;-76
2022/11/08 14:53:36;;;;;;;;;;;;;;;13.46;81.33008;100360.3;;;;-78
2022/11/08 14:58:35;;;;;;;;;;;;;;;13.37;81.9834;100351.1;;;;-77
2022/11/08 15:02:42;;;;;;;5;1.9;;;;;;;;;;;;;-77
2022/11/08 15:03:35;;;;;;;;;;;;;;;13.32;81.7832;100354.8;;;;-79
2022/11/08 15:08:37;;;;;;;;;;;;;;;13.25;81.94824;100354.2;;;;-78
2022/11/08 15:13:36;;;;;;;;;;;;;;;13.17;82.44629;100351.2;;;;-76
2022/11/08 15:18:36;;;;;;;;;;;;;;;13.13;82.48242;100353.7;;;;-77
2022/11/08 15:23:52;;;;;;;;;;;;;;;13.07;82.69434;100353.1;;;;-78
2022/11/08 15:28:39;;;;;;;;;;;;;;;13.03;83.28418;100354.3;;;;-77
2022/11/08 15:32:43;;;;;;;5.2;1.9;;;;;;;;;;;;;-77
2022/11/08 15:33:37;;;;;;;;;;;;;;;12.96;83.30566;100347.7;;;;-77
2022/11/08 15:38:37;;;;;;;;;;;;;;;12.91;83.46191;100351.8;;;;-77
2022/11/08 15:43:43;;;;;;;;;;;;;;;12.85;83.91895;100352.6;;;;-76
2022/11/08 15:48:36;;;;;;;;;;;;;;;12.81;83.86719;100350.8;;;;-77
2022/11/08 15:53:39;;;;;;;;;;;;;;;12.74;84.25488;100351.2;;;;-77
2022/11/08 15:58:36;;;;;;;;;;;;;;;12.69;84.56641;100337;;;;-77
2022/11/08 16:02:44;;;;;;;6.2;1.9;;;;;;;;;;;;;-77
2022/11/08 16:03:41;;;;;;;;;;;;;;;12.65;84.73535;100330.4;;;;-78
2022/11/08 16:08:35;;;;;;;;;;;;;;;12.62;85.10938;100332.6;;;;-77
2022/11/08 16:13:40;;;;;;;;;;;;;;;12.62;85.07617;100325.2;;;;-77
2022/11/08 16:18:35;;;;;;;;;;;;;;;12.6;85.24805;100323.8;;;;-77
2022/11/08 16:23:35;;;;;;;;;;;;;;;12.55;85.37305;100306.5;;;;-78
2022/11/08 16:28:36;;;;;;;;;;;;;;;12.54;85.4375;100307.6;;;;-78
2022/11/08 16:32:46;;;;;;;5.2;1.9;;;;;;;;;;;;;-78
2022/11/08 16:33:35;;;;;;;;;;;;;;;12.5;85.57324;100306;;;;-77
2022/11/08 16:38:37;;;;;;;;;;;;;;;12.46;85.77637;100312;;;;-76
2022/11/08 16:43:40;;;;;;;;;;;;;;;12.43;85.86035;100312.7;;;;-77
2022/11/08 16:48:35;;;;;;;;;;;;;;;12.37;86.10254;100310.1;;;;-78
2022/11/08 16:53:36;;;;;;;;;;;;;;;12.32;86.33789;100322.2;;;;-78
2022/11/08 16:58:41;;;;;;;;;;;;;;;12.27;86.41602;100312.7;;;;-78
2022/11/08 17:02:53;;;;;;;7.3;2;;;;;;;;;;;;;-78
2022/11/08 17:03:35;;;;;;;;;;;;;;;12.23;86.61719;100312.5;;;;-77
2022/11/08 17:08:35;;;;;;;;;;;;;;;12.19;86.77637;100300.5;;;;-77
2022/11/08 17:13:35;;;;;;;;;;;;;;;12.15;86.86719;100307.5;;;;-77
2022/11/08 17:18:37;;;;;;;;;;;;;;;12.1;87.19141;100313.3;;;;-77
2022/11/08 17:23:53;;;;;;;;;;;;;;;12.04;87.28027;100322.3;;;;-77
2022/11/08 17:28:35;;;;;;;;;;;;;;;12;87.48145;100326.1;;;;-77
2022/11/08 17:32:50;;;;;;;6.8;2.1;;;;;;;;;;;;;-78
2022/11/08 17:33:35;;;;;;;;;;;;;;;11.96;87.60742;100323.6;;;;-77
2022/11/08 17:38:36;;;;;;;;;;;;;;;11.95;87.69336;100323.7;;;;-78
2022/11/08 17:43:38;;;;;;;;;;;;;;;11.9;88.02637;100325.5;;;;-77
2022/11/08 17:48:35;;;;;;;;;;;;;;;11.9;88.07031;100329.7;;;;-78
2022/11/08 17:53:36;;;;;;;;;;;;;;;11.86;88.11816;100328.1;;;;-76
2022/11/08 17:58:36;;;;;;;;;;;;;;;11.8;88.30469;100330;;;;-77
2022/11/08 18:02:50;;;;;;;4.9;2.7;;;;;;;;;;;;;-78
2022/11/08 18:03:37;;;;;;;;;;;;;;;11.78;88.47852;100327.7;;;;-77
2022/11/08 18:08:36;;;;;;;;;;;;;;;11.75;88.53906;100325.6;;;;-77
2022/11/08 18:13:39;;;;;;;;;;;;;;;11.73;88.60059;100328;;;;-77
2022/11/08 18:18:35;;;;;;;;;;;;;;;11.7;88.81641;100322.4;;;;-78
2022/11/08 18:23:35;;;;;;;;;;;;;;;11.68;88.92285;100314.2;;;;-79
2022/11/08 18:28:35;;;;;;;;;;;;;;;11.64;89.01563;100320.5;;;;-78
2022/11/08 18:32:51;;;;;;;5.6;2.3;;;;;;;;;;;;;-78
2022/11/08 18:33:35;;;;;;;;;;;;;;;11.64;89.21387;100320.1;;;;-76
2022/11/08 18:38:37;;;;;;;;;;;;;;;11.63;89.25488;100319.9;;;;-79
2022/11/08 18:43:35;;;;;;;;;;;;;;;11.63;89.46484;100327.3;;;;-77
2022/11/08 18:48:37;;;;;;;;;;;;;;;11.61;89.38184;100330.3;;;;-80
2022/11/08 18:53:35;;;;;;;;;;;;;;;11.58;89.58887;100330.8;;;;-77
2022/11/08 18:58:35;;;;;;;;;;;;;;;11.57;89.78516;100323.2;;;;-78
2022/11/08 19:02:53;;;;;;;7.5;2.5;;;;;;;;;;;;;-77
2022/11/08 19:03:35;;;;;;;;;;;;;;;11.57;89.88477;100325.4;;;;-78
2022/11/08 19:08:35;;;;;;;;;;;;;;;11.56;89.87012;100325.2;;;;-78
2022/11/08 19:13:36;;;;;;;;;;;;;;;11.55;89.90332;100318.2;;;;-78
2022/11/08 19:18:35;;;;;;;;;;;;;;;11.53;90.23145;100323.1;;;;-79
2022/11/08 19:23:38;;;;;;;;;;;;;;;11.52;90.27246;100317.5;;;;-77
2022/11/08 19:28:35;;;;;;;;;;;;;;;11.49;90.2666;100316.8;;;;-77
2022/11/08 19:32:56;;;;;;;5.9;2.5;;;;;;;;;;;;;-78
2022/11/08 19:33:38;;;;;;;;;;;;;;;11.45;90.36914;100313.1;;;;-78
2022/11/08 19:38:46;;;;;;;;;;;;;;;11.44;90.60938;100314.9;;;;-76
2022/11/08 19:43:38;;;;;;;;;;;;;;;11.44;90.4668;100309.7;;;;-77
2022/11/08 19:48:37;;;;;;;;;;;;;;;11.42;90.58496;100296.9;;;;-76
2022/11/08 19:53:38;;;;;;;;;;;;;;;11.41;90.71387;100345.6;;;;-78
2022/11/08 19:58:37;;;;;;;;;;;;;;;11.51;91.49707;100436.3;;;;-79
2022/11/08 20:02:57;;;;;;;6.3;1.8;;;;;;;;;;;;;-79
2022/11/08 20:03:43;;;;;;;;;;;;;;;11.48;91.22656;100457;;;;-80
2022/11/08 20:08:35;;;;;;;;;;;;;;;11.39;91.52734;100440.5;;;;-81
2022/11/08 20:18:42;;;;;;;;;;;;;;;11.23;91.54883;100400.4;;;;-82
2022/11/08 20:21:44;;;;;;;;;;;;;;;11.31;90.79297;100386.5;;;;-79
2022/11/08 20:25:57;;;;;;;;;;;;;;;11.16;90.89355;100394;;;;-81
2022/11/08 20:31:04;;;;;;;;;;;;;;;11.11;91.11523;100390.6;;;;-81
2022/11/08 20:32:56;;;;;;;2.5;0.6;;;;;;;;;;;;;-81
2022/11/08 20:35:53;;;;;;;;;;;;;;;11.05;91.08203;100388.1;;;;-81
2022/11/08 20:40:54;;;;;;;;;;;;;;;11.01;91.02832;100409.9;;;;-81
2022/11/08 20:51:03;;;;;;;;;;;;;;;10.94;91.41113;100420.7;;;;-80
2022/11/08 20:55:58;;;;;;;;;;;;;;;10.89;91.22656;100422;;;;-80
2022/11/08 21:01:05;;;;;;;;;;;;;;;10.86;91.0293;100428;;;;-80
2022/11/08 21:03:04;;;;;;;1.5;0.5;;;;;;;;;;;;;-80
2022/11/08 21:06:20;;;;;;;;;;;;;;;;;;;;;
2022/11/08 21:16:08;;;;;;;;;;;;;;;10.87;91.57422;100438;;;;-82
2022/11/08 21:21:09;;;;;;;;;;;;;;;10.85;91.58105;100444.6;;;;-82
2022/11/08 21:45:22;;;;;;;;;;;;;;;10.9;93.58789;100440.6;;;;-83
2022/11/08 21:59:46;;;;;;;;;;;;;;;10.93;93.20703;100440.9;;;;-85
2022/11/08 22:03:08;;;;;;;5.6;1.1;;;;;;;;;;;;;-83
2022/11/08 22:04:43;;;;;;;;;;;;;;;10.94;94.03809;100452.2;;;;-83
2022/11/08 22:09:45;;;;;;;;;;;;;;;10.95;94.45996;100448.8;;;;-83
2022/11/08 22:20:00;;;;;;;;;;;;;;;11.07;94.94824;100439.5;;;;-80
2022/11/08 22:28:22;;;;;;;;;;;;;;;11;94.18457;100426.3;;;;-80
2022/11/08 22:33:00;;;;;;;7.5;1.4;;;;;;;;;;;;;-81
2022/11/08 22:33:31;;;;;;;;;;;;;;;10.98;93.46191;100427.8;;;;-81
2022/11/08 22:38:20;;;;;;;;;;;;;;;10.96;93.8418;100435.1;;;;-81
2022/11/08 22:43:31;;;;;;;;;;;;;;;10.94;93.62891;100421.1;;;;-83
2022/11/08 22:48:21;;;;;;;;;;;;;;;10.94;93.58398;100429.9;;;;-81
2022/11/08 22:53:22;;;;;;;;;;;;;;;10.93;93.53809;100431.5;;;;-82
2022/11/08 22:58:32;;;;;;;;;;;;;;;10.92;93.25;100437.3;;;;-81
2022/11/08 23:03:05;;;;;;;4;1;;;;;;;;;;;;;-82
2022/11/08 23:03:32;;;;;;;;;;;;;;;10.91;93.36914;100435.6;;;;-81
2022/11/08 23:08:24;;;;;;;;;;;;;;;10.88;93.12012;100429.4;;;;-80
2022/11/08 23:18:19;;;;;;;;;;;;;;;10.88;92.94434;100431.3;;;;-82
2022/11/08 23:33:11;;;;;;;4.8;1.3;;;;;;;;;;;;;-82
2022/11/08 23:33:21;;;;;;;;;;;;;;;10.84;92.80371;100420.1;;;;-79
2022/11/08 23:38:19;;;;;;;;;;;;;;;10.83;93.00098;100409.3;;;;-82
2022/11/08 23:53:39;;;;;;;;;;;;;;;10.93;94.66309;100433.1;;;;-81
2022/11/08 23:58:41;;;;;;;;;;;;;;;10.97;94.44141;100436.2;;;;-83
